Time;durP1;ratioP1;P1;durP2;ratioP2;P2;SDS_P1;SDS_P2;PMS_P1;PMS_P2;Temp;Humidity;BMP_temperature;BMP_pressure;BME280_temperature;BME280_humidity;BME280_pressure;Samples;Min_cycle;Max_cycle;Signal;HPM_P1;HPM_P2
2022/01/01 00:00:16;;;;;;;71.85;40.20;;;11.50;82.20;;;;;;5057493;28;20044;-77
2022/01/01 00:02:43;;;;;;;54.58;32.65;;;11.40;82.20;;;;;;5074692;28;20119;-76
2022/01/01 00:05:11;;;;;;;53.58;30.70;;;11.40;82.20;;;;;;5057420;28;20079;-76
2022/01/01 00:07:40;;;;;;;61.58;31.92;;;11.40;82.20;;;;;;5075208;28;20049;-76
2022/01/01 00:10:09;;;;;;;51.92;29.75;;;11.40;82.20;;;;;;5075691;28;20051;-76
2022/01/01 00:12:35;;;;;;;53.30;29.38;;;11.40;82.20;;;;;;5075231;28;20044;-77
2022/01/01 00:15:01;;;;;;;52.83;30.42;;;11.30;82.10;;;;;;5074829;28;20069;-77
2022/01/01 00:17:27;;;;;;;1999.90;999.90;;;11.30;82.10;;;;;;5074601;28;20365;-77
2022/01/01 00:19:53;;;;;;;155.13;133.98;;;11.30;82.10;;;;;;5056888;28;20063;-77
2022/01/01 00:22:18;;;;;;;82.18;63.05;;;11.30;82.10;;;;;;5056441;28;20534;-76
2022/01/01 00:24:44;;;;;;;69.38;43.40;;;11.30;82.10;;;;;;5056509;28;20050;-76
2022/01/01 00:27:10;;;;;;;69.50;36.22;;;11.30;82.10;;;;;;5074705;28;20040;-76
2022/01/01 00:29:36;;;;;;;69.57;37.00;;;11.20;82.10;;;;;;5075116;28;20044;-76
2022/01/01 00:32:03;;;;;;;71.28;36.20;;;11.20;82.10;;;;;;5056964;28;20094;-76
2022/01/01 00:34:29;;;;;;;68.80;32.72;;;11.20;82.10;;;;;;5074998;28;20041;-77
2022/01/01 00:36:54;;;;;;;66.18;32.67;;;11.20;82.10;;;;;;5074750;28;20510;-77
2022/01/01 00:39:20;;;;;;;59.45;29.02;;;11.20;82.20;;;;;;5075554;28;20036;-78
2022/01/01 00:41:47;;;;;;;53.42;27.83;;;11.20;82.20;;;;;;5057868;28;20097;-75
2022/01/01 00:44:12;;;;;;;50.78;27.25;;;11.20;82.20;;;;;;5075554;28;20041;-76
2022/01/01 00:46:38;;;;;;;57.83;28.55;;;11.20;82.30;;;;;;5073864;28;20045;-76
2022/01/01 00:49:04;;;;;;;53.33;27.30;;;11.10;82.20;;;;;;5074573;28;20044;-76
2022/01/01 00:51:30;;;;;;;49.50;26.00;;;11.10;82.20;;;;;;5074021;28;20040;-77
2022/01/01 00:53:56;;;;;;;46.05;22.38;;;11.10;82.20;;;;;;5074230;28;20487;-77
2022/01/01 00:56:21;;;;;;;201.00;160.63;;;11.10;82.30;;;;;;5074070;28;20036;-77
2022/01/01 00:58:47;;;;;;;53.95;25.33;;;11.10;82.30;;;;;;5056148;28;20059;-77
2022/01/01 01:01:12;;;;;;;48.90;21.52;;;11.10;82.40;;;;;;5073878;28;20125;-76
2022/01/01 01:03:38;;;;;;;47.78;27.83;;;11.10;82.40;;;;;;5056702;28;20063;-77
2022/01/01 01:06:04;;;;;;;53.63;25.80;;;11.10;82.40;;;;;;5054582;28;20415;-78
2022/01/01 01:08:30;;;;;;;49.33;27.65;;;11.10;82.40;;;;;;5072394;28;20043;-75
2022/01/01 01:10:57;;;;;;;58.42;33.90;;;11.10;82.40;;;;;;5073900;28;20048;-77
2022/01/01 01:13:24;;;;;;;60.53;34.45;;;11.10;82.40;;;;;;5055309;28;20044;-76
2022/01/01 01:15:50;;;;;;;70.97;38.47;;;11.10;82.40;;;;;;5073027;28;20055;-76
2022/01/01 01:18:16;;;;;;;66.13;39.78;;;11.10;82.50;;;;;;5072896;28;20497;-76
2022/01/01 01:20:41;;;;;;;75.93;44.28;;;11.10;82.40;;;;;;5052927;28;20060;-76
2022/01/01 01:23:08;;;;;;;76.68;44.50;;;11.10;82.40;;;;;;5072940;28;20454;-76
2022/01/01 01:25:39;;;;;;;78.88;45.72;;;11.10;82.50;;;;;;5055679;28;20089;-76
2022/01/01 01:28:09;;;;;;;75.13;46.60;;;11.10;82.50;;;;;;5069854;28;20051;-76
2022/01/01 01:30:35;;;;;;;94.80;49.88;;;11.00;82.50;;;;;;5067318;28;20049;-76
2022/01/01 01:33:01;;;;;;;84.85;48.50;;;11.10;82.60;;;;;;5067409;28;20044;-75
2022/01/01 01:35:27;;;;;;;87.78;50.13;;;11.10;82.70;;;;;;5050612;28;20052;-75
2022/01/01 01:37:53;;;;;;;89.00;49.47;;;11.10;82.70;;;;;;5049015;28;20052;-75
2022/01/01 01:40:19;;;;;;;86.05;48.40;;;11.10;82.80;;;;;;5067449;28;20056;-75
2022/01/01 01:42:45;;;;;;;87.68;50.40;;;11.10;82.90;;;;;;5065539;28;20049;-75
2022/01/01 01:45:16;;;;;;;78.60;45.80;;;11.10;82.90;;;;;;5050182;28;20135;-75
2022/01/01 01:47:42;;;;;;;79.95;46.72;;;11.10;83.00;;;;;;5067680;28;20505;-75
2022/01/01 01:50:10;;;;;;;85.45;49.35;;;11.10;83.00;;;;;;5069050;28;20155;-75
2022/01/01 01:52:37;;;;;;;88.55;50.67;;;11.10;83.10;;;;;;5067761;28;20047;-75
2022/01/01 01:55:09;;;;;;;90.05;51.15;;;11.10;83.10;;;;;;5049066;28;20094;-74
2022/01/01 01:57:36;;;;;;;92.03;51.92;;;11.10;83.20;;;;;;5068823;28;20060;-75
2022/01/01 02:00:08;;;;;;;89.10;48.92;;;11.10;83.10;;;;;;5032509;28;20403;-75
2022/01/01 02:02:33;;;;;;;89.60;51.47;;;11.10;83.20;;;;;;5067075;28;20051;-75
2022/01/01 02:04:59;;;;;;;83.80;48.75;;;11.10;83.10;;;;;;5068606;28;20029;-75
2022/01/01 02:07:25;;;;;;;91.05;51.13;;;11.20;83.20;;;;;;5049443;28;20086;-75
2022/01/01 02:09:51;;;;;;;79.57;45.60;;;11.20;83.60;;;;;;5068102;28;20126;-75
2022/01/01 02:12:17;;;;;;;83.95;45.90;;;11.20;83.20;;;;;;5067852;28;20495;-75
2022/01/01 02:17:23;;;;;;;70.50;44.78;;;11.20;83.20;;;;;;5068678;28;20101;-75
2022/01/01 02:20:01;;;;;;;80.53;43.92;;;11.20;83.20;;;;;;5067685;28;20567;-75
2022/01/01 02:22:36;;;;;;;84.82;44.65;;;11.20;83.30;;;;;;5049006;28;20067;-75
2022/01/01 02:25:02;;;;;;;77.18;45.70;;;11.20;83.20;;;;;;5049213;28;20040;-75
2022/01/01 02:27:28;;;;;;;70.20;43.60;;;11.20;83.20;;;;;;5068285;28;20132;-75
2022/01/01 02:29:54;;;;;;;84.82;47.40;;;11.20;83.20;;;;;;5067056;28;20135;-75
2022/01/01 02:32:19;;;;;;;83.80;47.33;;;11.20;83.20;;;;;;5066973;28;20487;-74
2022/01/01 02:34:45;;;;;;;79.50;50.38;;;11.20;83.20;;;;;;5068398;28;20041;-75
2022/01/01 02:37:10;;;;;;;75.22;48.40;;;11.30;83.20;;;;;;5067758;28;20070;-75
2022/01/01 02:39:36;;;;;;;81.10;48.47;;;11.20;83.10;;;;;;5067440;28;20033;-74
2022/01/01 02:42:06;;;;;;;80.70;47.55;;;11.30;83.20;;;;;;5071779;28;20080;-74
2022/01/01 02:44:31;;;;;;;74.57;48.92;;;11.20;83.10;;;;;;5053804;28;20383;-74
2022/01/01 02:46:57;;;;;;;80.85;48.22;;;11.20;83.00;;;;;;5070040;28;20044;-75
2022/01/01 02:49:24;;;;;;;79.28;49.20;;;11.20;83.00;;;;;;5056509;28;20105;-75
2022/01/01 02:51:50;;;;;;;85.07;50.28;;;11.30;83.00;;;;;;5076573;28;20475;-75
2022/01/01 02:54:15;;;;;;;92.75;53.00;;;11.30;82.90;;;;;;5076051;28;20043;-75
2022/01/01 02:56:41;;;;;;;84.75;52.13;;;11.20;82.70;;;;;;5058475;28;20040;-75
2022/01/01 02:59:06;;;;;;;74.88;49.70;;;11.20;82.70;;;;;;5056937;28;20048;-75
2022/01/01 03:01:32;;;;;;;86.55;52.00;;;11.20;82.60;;;;;;5076767;28;20059;-75
2022/01/01 03:03:58;;;;;;;86.63;51.50;;;11.20;82.60;;;;;;5058567;28;20040;-75
2022/01/01 03:06:23;;;;;;;83.82;54.45;;;11.20;82.60;;;;;;5058484;28;20044;-75
2022/01/01 03:08:51;;;;;;;91.38;55.72;;;11.20;82.50;;;;;;5057400;28;20051;-75
2022/01/01 03:11:18;;;;;;;101.93;58.70;;;11.20;82.50;;;;;;5040973;28;20487;-75
2022/01/01 03:13:44;;;;;;;95.82;59.15;;;11.20;82.50;;;;;;5075822;28;20040;-75
2022/01/01 03:16:10;;;;;;;99.70;61.28;;;11.20;82.50;;;;;;5076117;28;20119;-75
2022/01/01 03:18:37;;;;;;;105.35;63.78;;;11.10;82.50;;;;;;5074965;28;20479;-75
2022/01/01 03:21:03;;;;;;;94.65;59.67;;;11.20;82.50;;;;;;5075746;28;20036;-75
2022/01/01 03:23:28;;;;;;;101.53;60.80;;;11.10;82.50;;;;;;5057442;28;20056;-74
2022/01/01 03:25:54;;;;;;;102.57;62.78;;;11.10;82.50;;;;;;5075626;28;20036;-75
2022/01/01 03:28:19;;;;;;;103.90;63.08;;;11.10;82.60;;;;;;5076094;28;20044;-74
2022/01/01 03:30:45;;;;;;;98.63;63.55;;;11.10;82.60;;;;;;5075435;28;20485;-74
2022/01/01 03:33:11;;;;;;;102.68;63.60;;;11.10;82.60;;;;;;5057041;28;20125;-75
2022/01/01 03:35:36;;;;;;;113.10;67.25;;;11.10;82.70;;;;;;5057385;28;20158;-75
2022/01/01 03:38:02;;;;;;;103.90;66.88;;;11.10;82.70;;;;;;5075480;28;20140;-75
2022/01/01 03:40:28;;;;;;;110.68;68.03;;;11.10;82.70;;;;;;5074789;28;20418;-75
2022/01/01 03:42:53;;;;;;;109.55;66.32;;;11.10;82.70;;;;;;5057950;28;20547;-75
2022/01/01 03:45:19;;;;;;;109.07;66.70;;;11.10;82.70;;;;;;5075176;28;20040;-75
2022/01/01 03:47:44;;;;;;;103.90;62.95;;;11.10;82.80;;;;;;5058064;28;20056;-75
2022/01/01 03:50:11;;;;;;;99.28;66.00;;;11.10;82.80;;;;;;5074126;28;20037;-75
2022/01/01 03:52:41;;;;;;;97.75;62.00;;;11.10;82.90;;;;;;5073941;28;20040;-75
2022/01/01 03:55:08;;;;;;;106.65;62.95;;;11.10;82.90;;;;;;5056104;28;20058;-75
2022/01/01 03:57:34;;;;;;;99.25;62.83;;;11.10;82.90;;;;;;5074639;28;20479;-75
2022/01/01 04:00:00;;;;;;;101.28;63.33;;;11.10;82.90;;;;;;5074764;28;20052;-75
2022/01/01 04:02:25;;;;;;;104.90;63.60;;;11.20;83.00;;;;;;5057068;28;20136;-75
2022/01/01 04:04:51;;;;;;;98.90;60.83;;;11.10;83.00;;;;;;5074753;28;20387;-75
2022/01/01 04:07:17;;;;;;;95.13;60.67;;;11.20;83.10;;;;;;5056537;28;20048;-75
2022/01/01 04:09:42;;;;;;;100.60;60.80;;;11.10;83.00;;;;;;5074414;28;20040;-75
2022/01/01 04:12:08;;;;;;;93.82;56.17;;;11.20;83.10;;;;;;5074954;28;20604;-75
2022/01/01 04:14:34;;;;;;;96.40;60.08;;;11.20;83.10;;;;;;5056973;28;20383;-75
2022/01/01 04:16:59;;;;;;;90.50;59.10;;;11.20;83.20;;;;;;5074579;28;20036;-75
2022/01/01 04:19:36;;;;;;;102.50;59.80;;;11.20;83.20;;;;;;5074344;28;20392;-75
2022/01/01 04:22:02;;;;;;;90.90;57.53;;;11.20;83.20;;;;;;5069732;28;20051;-75
2022/01/01 04:24:27;;;;;;;92.55;57.75;;;11.20;83.20;;;;;;5056411;28;20044;-75
2022/01/01 04:26:53;;;;;;;88.35;59.40;;;11.20;83.20;;;;;;5073037;28;20048;-75
2022/01/01 04:29:19;;;;;;;88.72;57.33;;;11.20;83.20;;;;;;5057214;28;20036;-75
2022/01/01 04:31:44;;;;;;;95.18;59.92;;;11.20;83.20;;;;;;5074175;28;20369;-75
2022/01/01 04:34:10;;;;;;;96.03;58.20;;;11.30;83.30;;;;;;5056630;28;20055;-74
2022/01/01 04:36:46;;;;;;;103.70;61.40;;;11.20;83.20;;;;;;5073655;28;20399;-75
2022/01/01 04:39:12;;;;;;;90.15;58.35;;;11.30;83.30;;;;;;5054665;28;20155;-75
2022/01/01 04:41:37;;;;;;;89.53;56.80;;;11.30;83.30;;;;;;5072827;28;20108;-75
2022/01/01 04:44:03;;;;;;;96.57;58.75;;;11.20;83.20;;;;;;5074663;28;20055;-75
2022/01/01 04:46:29;;;;;;;92.40;56.75;;;11.30;83.30;;;;;;5073495;28;20089;-75
2022/01/01 04:48:54;;;;;;;92.65;56.20;;;11.30;83.30;;;;;;5074490;28;20079;-75
2022/01/01 04:51:20;;;;;;;91.07;55.28;;;11.30;83.30;;;;;;5073847;28;20106;-75
2022/01/01 04:53:46;;;;;;;93.50;53.30;;;11.40;83.40;;;;;;5073672;28;20041;-75
2022/01/01 04:56:18;;;;;;;101.97;57.85;;;11.30;83.30;;;;;;5056103;28;20365;-75
2022/01/01 04:58:44;;;;;;;87.57;50.70;;;11.30;83.30;;;;;;5073707;28;20094;-76
2022/01/01 05:01:09;;;;;;;83.63;48.15;;;11.30;83.40;;;;;;5073756;28;20403;-74
2022/01/01 05:03:35;;;;;;;83.75;48.10;;;11.40;83.40;;;;;;5073910;28;20060;-75
2022/01/01 05:06:01;;;;;;;96.47;48.42;;;11.40;83.50;;;;;;5073595;28;20043;-75
2022/01/01 05:08:26;;;;;;;76.38;43.22;;;11.40;83.50;;;;;;5072885;28;20040;-75
2022/01/01 05:10:52;;;;;;;67.38;37.72;;;11.40;83.50;;;;;;5073367;28;20044;-76
2022/01/01 05:13:19;;;;;;;74.68;38.53;;;11.40;83.50;;;;;;5073086;28;20467;-74
2022/01/01 05:15:45;;;;;;;72.68;39.63;;;11.40;83.50;;;;;;5073797;28;20183;-75
2022/01/01 05:18:11;;;;;;;77.25;37.60;;;11.40;83.60;;;;;;5073714;28;20120;-75
2022/01/01 05:20:36;;;;;;;71.03;35.03;;;11.40;83.60;;;;;;5073972;28;20399;-75
2022/01/01 05:23:02;;;;;;;63.35;32.35;;;11.40;83.70;;;;;;5056100;28;20451;-75
2022/01/01 05:25:28;;;;;;;61.95;31.67;;;11.50;83.70;;;;;;5072915;28;20070;-75
2022/01/01 05:27:53;;;;;;;66.38;32.40;;;11.40;83.70;;;;;;5055253;28;20049;-75
2022/01/01 05:30:19;;;;;;;63.90;29.42;;;11.50;83.80;;;;;;5073404;28;20059;-75
2022/01/01 05:32:45;;;;;;;65.15;30.10;;;11.50;83.80;;;;;;5073814;28;20085;-75
2022/01/01 05:35:10;;;;;;;57.50;27.65;;;11.50;83.80;;;;;;5073572;28;20581;-75
2022/01/01 05:37:36;;;;;;;55.88;26.42;;;11.50;83.80;;;;;;5074459;28;20071;-75
2022/01/01 05:40:02;;;;;;;59.30;24.92;;;11.50;83.90;;;;;;5073802;28;20074;-75
2022/01/01 05:42:28;;;;;;;54.40;24.88;;;11.50;84.00;;;;;;5055730;28;20115;-75
2022/01/01 05:44:54;;;;;;;57.25;23.73;;;11.50;84.00;;;;;;5055397;28;20139;-75
2022/01/01 05:47:19;;;;;;;47.15;21.50;;;11.50;84.00;;;;;;5073306;28;20040;-75
2022/01/01 05:49:45;;;;;;;46.67;21.33;;;11.50;84.00;;;;;;5073101;28;20119;-75
2022/01/01 05:52:11;;;;;;;58.08;23.05;;;11.50;84.10;;;;;;5072746;28;20049;-75
2022/01/01 05:54:36;;;;;;;50.47;21.55;;;11.60;84.10;;;;;;5072869;28;20490;-75
2022/01/01 05:57:03;;;;;;;50.10;20.98;;;11.60;84.20;;;;;;5045039;28;20055;-75
2022/01/01 05:59:29;;;;;;;47.50;20.80;;;11.60;84.20;;;;;;5073358;28;20047;-75
2022/01/01 06:01:54;;;;;;;40.33;19.50;;;11.60;84.20;;;;;;5072051;28;20044;-75
2022/01/01 06:04:20;;;;;;;50.28;19.75;;;11.60;84.20;;;;;;5072876;28;20036;-75
2022/01/01 06:06:46;;;;;;;51.35;20.50;;;11.70;84.30;;;;;;5054822;28;20476;-75
2022/01/01 06:09:12;;;;;;;44.92;18.92;;;11.60;84.30;;;;;;5073102;28;20557;-75
2022/01/01 06:11:37;;;;;;;47.75;20.13;;;11.60;84.30;;;;;;5072509;28;20040;-75
2022/01/01 06:14:03;;;;;;;45.90;19.77;;;11.70;84.30;;;;;;5072520;28;20041;-74
2022/01/01 06:16:29;;;;;;;40.83;20.17;;;11.70;84.40;;;;;;5073104;28;20135;-74
2022/01/01 06:18:54;;;;;;;47.13;21.38;;;11.70;84.40;;;;;;5054861;28;20468;-75
2022/01/01 06:21:20;;;;;;;49.60;21.55;;;11.70;84.40;;;;;;5076566;28;20127;-75
2022/01/01 06:23:46;;;;;;;43.78;19.33;;;11.70;84.30;;;;;;5058147;28;20131;-75
2022/01/01 06:26:11;;;;;;;39.05;19.52;;;11.80;84.40;;;;;;5076823;28;20032;-75
2022/01/01 06:28:37;;;;;;;41.42;19.70;;;11.70;84.40;;;;;;5076063;28;20531;-75
2022/01/01 06:31:02;;;;;;;44.88;20.45;;;11.70;84.30;;;;;;5059266;28;20045;-75
2022/01/01 06:33:28;;;;;;;45.78;21.30;;;11.80;84.40;;;;;;5076263;28;20048;-76
2022/01/01 06:35:56;;;;;;;46.50;20.90;;;11.80;84.40;;;;;;5076245;28;20056;-75
2022/01/01 06:38:21;;;;;;;38.63;19.70;;;11.80;84.40;;;;;;5076647;28;20093;-75
2022/01/01 06:40:47;;;;;;;37.15;19.33;;;11.80;84.40;;;;;;5076514;28;20124;-75
2022/01/01 06:43:14;;;;;;;39.97;19.33;;;11.90;84.40;;;;;;5058436;28;20044;-75
2022/01/01 06:45:41;;;;;;;38.65;20.50;;;11.80;84.40;;;;;;5076450;28;20119;-75
2022/01/01 06:48:06;;;;;;;37.30;19.45;;;11.80;84.40;;;;;;5075949;28;20062;-75
2022/01/01 06:50:33;;;;;;;42.33;19.85;;;11.80;84.30;;;;;;5076436;28;20506;-75
2022/01/01 06:52:58;;;;;;;48.35;20.17;;;11.80;84.40;;;;;;5076006;28;20180;-75
2022/01/01 06:55:24;;;;;;;40.75;19.50;;;11.80;84.30;;;;;;5076687;28;20068;-75
2022/01/01 06:57:50;;;;;;;40.72;19.50;;;11.80;84.40;;;;;;5075207;28;20052;-75
2022/01/01 07:00:16;;;;;;;46.45;21.48;;;11.80;84.30;;;;;;5076414;28;20041;-75
2022/01/01 07:02:44;;;;;;;50.35;20.20;;;11.90;84.40;;;;;;5075770;28;20063;-75
2022/01/01 07:05:11;;;;;;;44.40;20.98;;;11.80;84.30;;;;;;5076641;28;20140;-75
2022/01/01 07:07:37;;;;;;;40.05;19.70;;;11.90;84.30;;;;;;5075568;28;20063;-75
2022/01/01 07:10:08;;;;;;;37.67;20.35;;;11.90;84.30;;;;;;5076301;28;20119;-75
2022/01/01 07:12:34;;;;;;;39.05;19.98;;;11.90;84.20;;;;;;5057680;28;20059;-74
2022/01/01 07:15:00;;;;;;;37.22;20.25;;;11.90;84.20;;;;;;5075749;28;20048;-75
2022/01/01 07:17:26;;;;;;;34.28;19.77;;;11.90;84.20;;;;;;5058295;28;20033;-75
2022/01/01 07:19:51;;;;;;;36.35;20.50;;;11.90;84.20;;;;;;5075535;28;20045;-75
2022/01/01 07:22:17;;;;;;;35.70;18.70;;;11.90;84.10;;;;;;5057835;28;20048;-75
2022/01/01 07:24:44;;;;;;;40.15;20.40;;;11.90;84.10;;;;;;5075450;28;20044;-75
2022/01/01 07:27:11;;;;;;;43.55;20.48;;;11.90;84.10;;;;;;5076318;28;20037;-75
2022/01/01 07:29:37;;;;;;;36.97;21.13;;;11.90;84.10;;;;;;5074896;28;20123;-75
2022/01/01 07:32:03;;;;;;;37.20;21.35;;;11.90;84.10;;;;;;5074872;28;20167;-75
2022/01/01 07:34:28;;;;;;;39.13;21.15;;;11.90;84.00;;;;;;5075055;28;20322;-75
2022/01/01 07:36:54;;;;;;;42.78;21.88;;;11.90;84.00;;;;;;5075938;28;20044;-75
2022/01/01 07:39:19;;;;;;;47.15;22.48;;;11.90;84.00;;;;;;5074791;28;20044;-75
2022/01/01 07:41:45;;;;;;;42.70;22.17;;;11.90;84.00;;;;;;5057846;28;20045;-75
2022/01/01 07:44:13;;;;;;;44.85;21.25;;;11.90;84.00;;;;;;5074000;28;20055;-76
2022/01/01 07:46:39;;;;;;;44.60;24.63;;;12.00;84.10;;;;;;5075962;28;20052;-75
2022/01/01 07:49:05;;;;;;;40.05;23.50;;;12.00;84.10;;;;;;5057247;28;20036;-76
2022/01/01 07:51:30;;;;;;;42.45;24.00;;;11.90;84.00;;;;;;5075001;28;20075;-74
2022/01/01 07:53:56;;;;;;;41.13;23.35;;;11.90;84.00;;;;;;5075071;28;20080;-76
2022/01/01 07:56:21;;;;;;;36.80;23.63;;;11.90;84.00;;;;;;5057770;28;20037;-75
2022/01/01 07:58:47;;;;;;;47.70;25.00;;;12.00;84.10;;;;;;5057146;28;20052;-77
2022/01/01 08:01:13;;;;;;;41.70;25.42;;;11.90;84.00;;;;;;5074114;28;20049;-74
2022/01/01 08:03:38;;;;;;;50.75;25.15;;;12.00;84.10;;;;;;5074407;28;20052;-75
2022/01/01 08:06:04;;;;;;;50.35;24.27;;;12.00;84.10;;;;;;5056963;28;20041;-74
2022/01/01 08:08:29;;;;;;;45.47;26.23;;;12.00;84.10;;;;;;5075120;28;20048;-75
2022/01/01 08:10:56;;;;;;;49.17;25.98;;;12.00;84.10;;;;;;5074317;28;20036;-75
2022/01/01 08:13:24;;;;;;;43.55;24.90;;;12.00;84.10;;;;;;5056874;28;20052;-75
2022/01/01 08:15:51;;;;;;;47.75;26.00;;;12.00;84.20;;;;;;5074670;28;20040;-76
2022/01/01 08:18:17;;;;;;;42.47;23.45;;;12.00;84.20;;;;;;5057140;28;20052;-76
2022/01/01 08:20:43;;;;;;;44.53;24.10;;;12.00;84.20;;;;;;5056537;28;20483;-75
2022/01/01 08:23:09;;;;;;;43.40;25.20;;;12.10;84.20;;;;;;5056356;28;20066;-75
2022/01/01 08:25:35;;;;;;;46.50;25.70;;;12.10;84.20;;;;;;5074123;28;20046;-76
2022/01/01 08:28:01;;;;;;;44.22;23.75;;;12.10;84.20;;;;;;5075057;28;20036;-75
2022/01/01 08:30:26;;;;;;;40.45;23.88;;;12.10;84.30;;;;;;5056817;28;20044;-75
2022/01/01 08:32:52;;;;;;;45.30;23.30;;;12.10;84.30;;;;;;5039366;28;20464;-75
2022/01/01 08:35:18;;;;;;;43.08;24.30;;;12.10;84.30;;;;;;5073405;28;20044;-75
2022/01/01 08:37:43;;;;;;;40.63;22.48;;;12.10;84.30;;;;;;5056978;28;20131;-76
2022/01/01 08:40:10;;;;;;;41.25;23.67;;;12.10;84.30;;;;;;5074092;28;20472;-75
2022/01/01 08:42:36;;;;;;;37.58;22.75;;;12.20;84.30;;;;;;5074247;28;20123;-75
2022/01/01 08:45:02;;;;;;;36.65;21.92;;;12.20;84.20;;;;;;5055825;28;20535;-75
2022/01/01 08:47:28;;;;;;;41.58;22.40;;;12.20;84.20;;;;;;5074081;28;20036;-75
2022/01/01 08:49:55;;;;;;;42.72;22.35;;;12.20;84.10;;;;;;5072779;28;20437;-75
2022/01/01 08:52:25;;;;;;;39.00;21.27;;;12.20;84.10;;;;;;5074403;28;20403;-76
2022/01/01 08:54:56;;;;;;;37.90;21.38;;;12.30;84.10;;;;;;5054970;28;20479;-76
2022/01/01 08:57:23;;;;;;;30.17;18.65;;;12.20;84.00;;;;;;5056251;28;20101;-76
2022/01/01 08:59:48;;;;;;;36.38;20.08;;;12.20;83.90;;;;;;5073443;28;20109;-77
2022/01/01 09:02:14;;;;;;;35.85;19.75;;;12.30;84.00;;;;;;5073841;28;20044;-77
2022/01/01 09:04:40;;;;;;;35.78;20.05;;;12.20;83.80;;;;;;5073085;28;20039;-77
2022/01/01 09:07:05;;;;;;;31.73;19.02;;;12.30;83.80;;;;;;5073871;28;20044;-77
2022/01/01 09:09:31;;;;;;;34.72;19.67;;;12.30;83.80;;;;;;5072726;28;20048;-76
2022/01/01 09:11:57;;;;;;;32.55;17.67;;;12.30;83.80;;;;;;5073256;28;20085;-77
2022/01/01 09:14:23;;;;;;;40.15;19.02;;;12.30;83.80;;;;;;5073823;28;20123;-76
2022/01/01 09:16:49;;;;;;;35.10;19.17;;;12.30;83.80;;;;;;5072785;28;20094;-77
2022/01/01 09:19:15;;;;;;;32.67;19.23;;;12.30;84.10;;;;;;5073633;28;20396;-77
2022/01/01 09:21:40;;;;;;;28.30;17.08;;;12.30;83.70;;;;;;5055637;28;20043;-77
2022/01/01 09:24:06;;;;;;;27.73;17.55;;;12.40;84.10;;;;;;5073960;28;20040;-77
2022/01/01 09:26:32;;;;;;;31.65;18.13;;;12.40;83.70;;;;;;5072884;28;20072;-77
2022/01/01 09:28:58;;;;;;;28.15;15.73;;;12.40;83.60;;;;;;5073174;28;20399;-77
2022/01/01 09:31:24;;;;;;;29.10;16.38;;;12.50;83.60;;;;;;5054603;28;20029;-76
2022/01/01 09:33:49;;;;;;;29.90;16.38;;;12.50;83.60;;;;;;5055693;28;20076;-77
2022/01/01 09:36:17;;;;;;;34.75;16.85;;;12.50;83.60;;;;;;5073665;28;20043;-77
2022/01/01 09:38:44;;;;;;;28.35;16.80;;;12.50;83.50;;;;;;5073317;28;20072;-77
2022/01/01 09:41:12;;;;;;;23.67;15.05;;;12.50;83.40;;;;;;5072786;28;20037;-77
2022/01/01 09:43:38;;;;;;;24.80;14.00;;;12.50;83.40;;;;;;5055830;28;20135;-77
2022/01/01 09:46:04;;;;;;;24.30;14.15;;;12.60;83.40;;;;;;5072983;28;20503;-77
2022/01/01 09:48:30;;;;;;;22.80;14.70;;;12.60;83.30;;;;;;5073176;28;20028;-77
2022/01/01 09:50:59;;;;;;;26.95;14.27;;;12.60;83.20;;;;;;5073187;28;20041;-77
2022/01/01 09:53:26;;;;;;;26.42;14.77;;;12.60;83.20;;;;;;5072745;28;20045;-77
2022/01/01 09:55:57;;;;;;;23.05;13.63;;;12.60;83.10;;;;;;5071876;28;20557;-77
2022/01/01 09:58:24;;;;;;;23.45;12.52;;;12.70;83.10;;;;;;5055210;28;20053;-76
2022/01/01 10:00:52;;;;;;;22.65;13.05;;;12.70;83.00;;;;;;5055065;28;20752;-77
2022/01/01 10:03:42;;;;;;;21.15;11.68;;;12.70;82.90;;;;;;5072107;28;20044;-77
2022/01/01 10:06:09;;;;;;;20.10;11.77;;;12.70;82.80;;;;;;5054201;28;20067;-77
2022/01/01 10:08:39;;;;;;;20.65;11.38;;;12.70;82.70;;;;;;5054986;28;20615;-76
2022/01/01 10:11:06;;;;;;;17.38;11.00;;;12.70;82.60;;;;;;5059367;28;20056;-77
2022/01/01 10:13:34;;;;;;;20.27;10.98;;;12.70;82.50;;;;;;5072750;28;20051;-77
2022/01/01 10:16:03;;;;;;;20.55;10.52;;;12.70;82.40;;;;;;5055003;28;20059;-74
2022/01/01 10:18:30;;;;;;;19.00;10.48;;;12.70;82.30;;;;;;5070045;28;20083;-77
2022/01/01 10:21:02;;;;;;;20.13;11.00;;;12.80;82.30;;;;;;5072540;28;20044;-77
2022/01/01 10:23:30;;;;;;;17.60;10.38;;;12.80;82.20;;;;;;5054417;28;20049;-77
2022/01/01 10:29:27;;;;;;;16.13;9.30;;;12.80;81.80;;;;;;4987752;28;20069;-77
2022/01/01 10:31:58;;;;;;;16.63;9.57;;;12.80;82.10;;;;;;4974296;28;20065;-76
2022/01/01 10:34:30;;;;;;;19.30;9.27;;;12.80;82.10;;;;;;4991069;28;20133;-76
2022/01/01 10:36:56;;;;;;;17.20;9.18;;;12.80;82.10;;;;;;4975191;28;20061;-76
2022/01/01 10:39:22;;;;;;;17.95;10.02;;;12.80;82.00;;;;;;4974621;28;20046;-77
2022/01/01 10:41:52;;;;;;;19.30;9.02;;;12.90;82.00;;;;;;4991659;28;20054;-77
2022/01/01 10:44:33;;;;;;;20.10;10.07;;;12.90;82.00;;;;;;4990467;28;20414;-77
2022/01/01 10:47:04;;;;;;;19.77;9.75;;;12.90;81.90;;;;;;4991157;28;20509;-74
2022/01/01 10:52:21;;;;;;;16.52;9.82;;;12.90;81.90;;;;;;4990534;28;20085;-82
2022/01/01 10:54:59;;;;;;;22.42;9.82;;;12.90;81.80;;;;;;4974542;28;20045;-83
2022/01/01 10:57:33;;;;;;;19.25;9.43;;;12.90;81.80;;;;;;4967699;28;20039;-84
2022/01/01 11:00:13;;;;;;;18.50;8.88;;;12.90;81.80;;;;;;5038941;28;20445;-83
2022/01/01 11:02:42;;;;;;;15.68;8.65;;;12.90;81.70;;;;;;5054616;28;20064;-83
2022/01/01 11:05:08;;;;;;;16.38;8.02;;;12.90;81.70;;;;;;5055167;28;20041;-83
2022/01/01 11:07:35;;;;;;;14.75;7.80;;;12.90;81.60;;;;;;5075875;28;20040;-83
2022/01/01 11:10:01;;;;;;;16.42;7.20;;;13.00;81.60;;;;;;5059116;28;20471;-83
2022/01/01 11:12:29;;;;;;;16.52;7.43;;;13.00;81.60;;;;;;5076939;28;20066;-84
2022/01/01 11:14:56;;;;;;;13.60;7.07;;;13.00;81.50;;;;;;5076371;28;20124;-83
2022/01/01 11:17:23;;;;;;;16.55;7.53;;;13.00;81.40;;;;;;5058616;28;20547;-83
2022/01/01 11:19:49;;;;;;;13.13;7.25;;;13.00;81.30;;;;;;5075955;28;20056;-83
2022/01/01 11:22:18;;;;;;;15.43;6.90;;;13.00;81.20;;;;;;5075174;28;20491;-82
2022/01/01 11:24:45;;;;;;;14.90;5.90;;;13.00;81.20;;;;;;5075446;28;20032;-82
2022/01/01 11:27:11;;;;;;;14.68;7.00;;;13.10;81.20;;;;;;5075168;28;20045;-81
2022/01/01 11:29:43;;;;;;;16.40;6.47;;;13.10;81.20;;;;;;5057855;28;20051;-82
2022/01/01 11:32:11;;;;;;;11.45;5.70;;;13.10;81.10;;;;;;5074851;28;20044;-82
2022/01/01 11:34:38;;;;;;;14.00;6.05;;;13.10;81.10;;;;;;5057526;28;20036;-82
2022/01/01 11:37:05;;;;;;;11.25;5.53;;;13.10;81.00;;;;;;5057338;28;20753;-82
2022/01/01 11:39:31;;;;;;;17.00;5.90;;;13.10;81.00;;;;;;5075452;28;20029;-81
2022/01/01 11:42:15;;;;;;;15.98;6.07;;;13.10;80.90;;;;;;5053976;28;20051;-81
2022/01/01 11:44:48;;;;;;;13.57;6.10;;;13.20;80.90;;;;;;5075595;28;20123;-82
2022/01/01 11:47:16;;;;;;;13.25;6.45;;;13.20;81.00;;;;;;5056825;28;20040;-82
2022/01/01 11:49:43;;;;;;;11.02;5.35;;;13.20;80.90;;;;;;5056663;28;20127;-81
2022/01/01 11:52:08;;;;;;;13.93;6.43;;;13.20;80.80;;;;;;5052108;28;20040;-82
2022/01/01 11:54:36;;;;;;;12.82;5.40;;;13.30;80.70;;;;;;5040438;28;20529;-81
2022/01/01 11:57:07;;;;;;;12.65;5.40;;;13.30;80.60;;;;;;5074329;28;20076;-80
2022/01/01 11:59:40;;;;;;;14.73;6.05;;;13.30;80.50;;;;;;5056860;28;20533;-81
2022/01/01 12:02:09;;;;;;;12.48;5.90;;;13.40;80.50;;;;;;5074760;28;20041;-81
2022/01/01 12:04:43;;;;;;;10.45;5.55;;;13.40;80.40;;;;;;5056633;28;20044;-83
2022/01/01 12:07:18;;;;;;;11.27;5.43;;;13.30;80.10;;;;;;5074206;28;20496;-82
2022/01/01 12:10:05;;;;;;;11.90;5.55;;;13.40;80.20;;;;;;5074689;28;20115;-82
2022/01/01 12:12:45;;;;;;;10.93;5.68;;;13.50;79.90;;;;;;4944121;28;20082;-82
2022/01/01 12:15:35;;;;;;;16.13;6.63;;;13.40;79.90;;;;;;4950909;28;20051;-82
2022/01/01 12:18:34;;;;;;;12.85;5.50;;;13.50;79.80;;;;;;4952637;28;20047;-82
2022/01/01 12:21:04;;;;;;;12.35;5.55;;;13.50;79.90;;;;;;4900563;29;20064;-81
2022/01/01 12:23:36;;;;;;;12.50;5.97;;;13.50;79.90;;;;;;4900934;29;20140;-82
2022/01/01 12:26:08;;;;;;;13.00;5.60;;;13.50;79.80;;;;;;4917229;29;20099;-82
2022/01/01 12:28:36;;;;;;;10.15;5.43;;;13.50;79.70;;;;;;4915738;29;20181;-82
2022/01/01 12:31:05;;;;;;;9.98;5.13;;;13.50;79.70;;;;;;4900396;29;20056;-81
2022/01/01 12:33:45;;;;;;;10.73;6.43;;;13.50;79.60;;;;;;4915894;29;20048;-82
2022/01/01 12:36:12;;;;;;;12.45;5.53;;;13.50;79.50;;;;;;4899818;29;20059;-81